sensor_id;sensor_type;location;lat;lon;timestamp;P1;durP1;ratioP1;P2;durP2;ratioP2
24279;SDS011;12395;42.808;23.408;2022-10-15T00:02:03;5.13;;;3.70;;
24279;SDS011;12395;42.808;23.408;2022-10-15T00:04:29;5.78;;;3.50;;
24279;SDS011;12395;42.808;23.408;2022-10-15T00:06:55;5.00;;;3.42;;
24279;SDS011;12395;42.808;23.408;2022-10-15T00:09:20;4.97;;;3.15;;
24279;SDS011;12395;42.808;23.408;2022-10-15T00:11:46;5.15;;;3.40;;
24279;SDS011;12395;42.808;23.408;2022-10-15T00:14:11;6.10;;;3.45;;
24279;SDS011;12395;42.808;23.408;2022-10-15T00:16:36;6.00;;;3.70;;
24279;SDS011;12395;42.808;23.408;2022-10-15T00:19:02;5.90;;;4.00;;
24279;SDS011;12395;42.808;23.408;2022-10-15T00:21:27;5.95;;;3.92;;
24279;SDS011;12395;42.808;23.408;2022-10-15T00:23:53;5.65;;;3.47;;
24279;SDS011;12395;42.808;23.408;2022-10-15T00:26:20;8.45;;;4.28;;
24279;SDS011;12395;42.808;23.408;2022-10-15T00:28:48;7.53;;;4.25;;
24279;SDS011;12395;42.808;23.408;2022-10-15T00:31:16;6.88;;;4.20;;
24279;SDS011;12395;42.808;23.408;2022-10-15T00:33:44;6.95;;;4.00;;
24279;SDS011;12395;42.808;23.408;2022-10-15T00:36:11;7.72;;;4.50;;
24279;SDS011;12395;42.808;23.408;2022-10-15T00:38:38;11.20;;;4.45;;
24279;SDS011;12395;42.808;23.408;2022-10-15T00:41:05;6.93;;;4.20;;
24279;SDS011;12395;42.808;23.408;2022-10-15T00:46:05;6.57;;;4.13;;
24279;SDS011;12395;42.808;23.408;2022-10-15T00:48:40;5.95;;;3.83;;
24279;SDS011;12395;42.808;23.408;2022-10-15T00:51:05;6.47;;;4.20;;
24279;SDS011;12395;42.808;23.408;2022-10-15T00:53:32;5.43;;;3.92;;
24279;SDS011;12395;42.808;23.408;2022-10-15T00:55:58;7.07;;;4.18;;
24279;SDS011;12395;42.808;23.408;2022-10-15T00:58:25;6.47;;;4.28;;
24279;SDS011;12395;42.808;23.408;2022-10-15T01:00:56;6.95;;;4.18;;
24279;SDS011;12395;42.808;23.408;2022-10-15T01:03:21;7.28;;;3.97;;
24279;SDS011;12395;42.808;23.408;2022-10-15T01:05:48;8.10;;;3.95;;
24279;SDS011;12395;42.808;23.408;2022-10-15T01:08:15;7.10;;;4.13;;
24279;SDS011;12395;42.808;23.408;2022-10-15T01:11:07;7.53;;;3.90;;
24279;SDS011;12395;42.808;23.408;2022-10-15T01:13:34;7.00;;;3.85;;
24279;SDS011;12395;42.808;23.408;2022-10-15T01:16:14;5.93;;;3.80;;
24279;SDS011;12395;42.808;23.408;2022-10-15T01:18:45;5.57;;;3.60;;
24279;SDS011;12395;42.808;23.408;2022-10-15T01:21:38;4.88;;;3.45;;
24279;SDS011;12395;42.808;23.408;2022-10-15T01:24:18;6.10;;;3.70;;
24279;SDS011;12395;42.808;23.408;2022-10-15T01:30:03;4.80;;;3.00;;
24279;SDS011;12395;42.808;23.408;2022-10-15T01:32:42;5.88;;;3.28;;
24279;SDS011;12395;42.808;23.408;2022-10-15T01:40:40;4.65;;;3.22;;
24279;SDS011;12395;42.808;23.408;2022-10-15T01:43:20;4.72;;;3.42;;
24279;SDS011;12395;42.808;23.408;2022-10-15T01:45:52;6.88;;;3.40;;
24279;SDS011;12395;42.808;23.408;2022-10-15T01:48:22;5.50;;;2.83;;
24279;SDS011;12395;42.808;23.408;2022-10-15T01:50:52;4.75;;;2.72;;
24279;SDS011;12395;42.808;23.408;2022-10-15T01:53:24;5.18;;;2.88;;
24279;SDS011;12395;42.808;23.408;2022-10-15T01:55:55;5.18;;;3.22;;
24279;SDS011;12395;42.808;23.408;2022-10-15T01:58:24;7.10;;;3.50;;
24279;SDS011;12395;42.808;23.408;2022-10-15T02:00:51;4.32;;;3.05;;
24279;SDS011;12395;42.808;23.408;2022-10-15T02:03:19;5.45;;;3.17;;
24279;SDS011;12395;42.808;23.408;2022-10-15T02:06:05;4.68;;;3.30;;
24279;SDS011;12395;42.808;23.408;2022-10-15T02:16:15;6.00;;;3.40;;
24279;SDS011;12395;42.808;23.408;2022-10-15T02:21:38;6.82;;;3.28;;
24279;SDS011;12395;42.808;23.408;2022-10-15T02:24:16;7.40;;;3.53;;
24279;SDS011;12395;42.808;23.408;2022-10-15T02:26:46;6.97;;;3.58;;
24279;SDS011;12395;42.808;23.408;2022-10-15T02:29:15;5.63;;;3.50;;
24279;SDS011;12395;42.808;23.408;2022-10-15T02:31:43;6.68;;;3.60;;
24279;SDS011;12395;42.808;23.408;2022-10-15T02:34:13;7.97;;;3.63;;
24279;SDS011;12395;42.808;23.408;2022-10-15T02:36:42;7.72;;;3.63;;
24279;SDS011;12395;42.808;23.408;2022-10-15T02:39:13;6.72;;;3.63;;
24279;SDS011;12395;42.808;23.408;2022-10-15T02:41:43;8.43;;;3.95;;
24279;SDS011;12395;42.808;23.408;2022-10-15T02:44:09;8.15;;;3.97;;
24279;SDS011;12395;42.808;23.408;2022-10-15T02:46:35;7.90;;;4.45;;
24279;SDS011;12395;42.808;23.408;2022-10-15T02:49:00;9.05;;;4.50;;
24279;SDS011;12395;42.808;23.408;2022-10-15T02:51:26;9.18;;;4.70;;
24279;SDS011;12395;42.808;23.408;2022-10-15T02:53:51;10.05;;;5.22;;
24279;SDS011;12395;42.808;23.408;2022-10-15T02:56:16;11.52;;;5.55;;
24279;SDS011;12395;42.808;23.408;2022-10-15T02:58:42;12.32;;;5.97;;
24279;SDS011;12395;42.808;23.408;2022-10-15T03:01:07;11.73;;;6.00;;
24279;SDS011;12395;42.808;23.408;2022-10-15T03:03:33;11.48;;;5.70;;
24279;SDS011;12395;42.808;23.408;2022-10-15T03:05:58;12.00;;;6.10;;
24279;SDS011;12395;42.808;23.408;2022-10-15T03:08:23;12.07;;;5.78;;
24279;SDS011;12395;42.808;23.408;2022-10-15T03:10:49;10.70;;;5.57;;
24279;SDS011;12395;42.808;23.408;2022-10-15T03:13:14;11.32;;;5.65;;
24279;SDS011;12395;42.808;23.408;2022-10-15T03:15:40;10.55;;;5.55;;
24279;SDS011;12395;42.808;23.408;2022-10-15T03:18:05;10.95;;;5.43;;
24279;SDS011;12395;42.808;23.408;2022-10-15T03:20:31;11.60;;;5.68;;
24279;SDS011;12395;42.808;23.408;2022-10-15T03:22:57;9.82;;;5.03;;
24279;SDS011;12395;42.808;23.408;2022-10-15T03:25:22;10.40;;;5.72;;
24279;SDS011;12395;42.808;23.408;2022-10-15T03:27:48;11.25;;;5.38;;
24279;SDS011;12395;42.808;23.408;2022-10-15T03:30:13;11.35;;;5.57;;
24279;SDS011;12395;42.808;23.408;2022-10-15T03:32:38;10.00;;;5.35;;
24279;SDS011;12395;42.808;23.408;2022-10-15T03:35:04;10.27;;;5.60;;
24279;SDS011;12395;42.808;23.408;2022-10-15T03:37:30;10.80;;;5.72;;
24279;SDS011;12395;42.808;23.408;2022-10-15T03:39:55;10.57;;;5.38;;
24279;SDS011;12395;42.808;23.408;2022-10-15T03:42:21;9.75;;;5.47;;
24279;SDS011;12395;42.808;23.408;2022-10-15T03:44:46;11.10;;;5.55;;
24279;SDS011;12395;42.808;23.408;2022-10-15T03:47:12;8.82;;;5.40;;
24279;SDS011;12395;42.808;23.408;2022-10-15T03:49:37;13.65;;;5.88;;
24279;SDS011;12395;42.808;23.408;2022-10-15T03:52:03;10.43;;;5.65;;
24279;SDS011;12395;42.808;23.408;2022-10-15T03:54:28;10.50;;;5.85;;
24279;SDS011;12395;42.808;23.408;2022-10-15T03:56:54;11.93;;;5.82;;
24279;SDS011;12395;42.808;23.408;2022-10-15T03:59:19;10.77;;;5.30;;
24279;SDS011;12395;42.808;23.408;2022-10-15T04:01:45;8.85;;;5.03;;
24279;SDS011;12395;42.808;23.408;2022-10-15T04:04:10;9.88;;;5.22;;
24279;SDS011;12395;42.808;23.408;2022-10-15T04:06:36;10.52;;;5.68;;
24279;SDS011;12395;42.808;23.408;2022-10-15T04:09:02;10.73;;;5.30;;
24279;SDS011;12395;42.808;23.408;2022-10-15T04:11:28;11.88;;;5.35;;
24279;SDS011;12395;42.808;23.408;2022-10-15T04:13:53;13.05;;;5.07;;
24279;SDS011;12395;42.808;23.408;2022-10-15T04:16:18;10.98;;;5.40;;
24279;SDS011;12395;42.808;23.408;2022-10-15T04:18:44;9.52;;;5.15;;
24279;SDS011;12395;42.808;23.408;2022-10-15T04:21:09;9.95;;;5.18;;
24279;SDS011;12395;42.808;23.408;2022-10-15T04:23:35;10.27;;;4.78;;
24279;SDS011;12395;42.808;23.408;2022-10-15T04:26:00;8.18;;;5.03;;
24279;SDS011;12395;42.808;23.408;2022-10-15T04:28:26;10.13;;;5.47;;
24279;SDS011;12395;42.808;23.408;2022-10-15T04:30:56;9.20;;;4.88;;
24279;SDS011;12395;42.808;23.408;2022-10-15T04:33:25;9.52;;;4.80;;
24279;SDS011;12395;42.808;23.408;2022-10-15T04:36:04;7.90;;;4.28;;
24279;SDS011;12395;42.808;23.408;2022-10-15T04:38:31;10.38;;;5.05;;
24279;SDS011;12395;42.808;23.408;2022-10-15T04:41:02;11.10;;;4.57;;
24279;SDS011;12395;42.808;23.408;2022-10-15T04:43:29;10.85;;;5.10;;
24279;SDS011;12395;42.808;23.408;2022-10-15T04:45:59;9.13;;;4.63;;
24279;SDS011;12395;42.808;23.408;2022-10-15T04:48:29;11.15;;;5.50;;
24279;SDS011;12395;42.808;23.408;2022-10-15T04:51:01;9.48;;;5.38;;
24279;SDS011;12395;42.808;23.408;2022-10-15T04:53:35;10.82;;;5.82;;
24279;SDS011;12395;42.808;23.408;2022-10-15T04:56:02;9.43;;;5.10;;
24279;SDS011;12395;42.808;23.408;2022-10-15T04:58:32;11.25;;;5.35;;
24279;SDS011;12395;42.808;23.408;2022-10-15T05:01:02;8.90;;;5.18;;
24279;SDS011;12395;42.808;23.408;2022-10-15T05:03:29;9.98;;;5.03;;
24279;SDS011;12395;42.808;23.408;2022-10-15T05:06:02;9.57;;;5.00;;
24279;SDS011;12395;42.808;23.408;2022-10-15T05:08:30;10.95;;;4.78;;
24279;SDS011;12395;42.808;23.408;2022-10-15T05:11:04;8.35;;;4.28;;
24279;SDS011;12395;42.808;23.408;2022-10-15T05:13:30;8.05;;;4.68;;
24279;SDS011;12395;42.808;23.408;2022-10-15T05:15:56;8.90;;;4.45;;
24279;SDS011;12395;42.808;23.408;2022-10-15T05:18:32;8.05;;;4.43;;
24279;SDS011;12395;42.808;23.408;2022-10-15T05:20:59;7.07;;;3.95;;
24279;SDS011;12395;42.808;23.408;2022-10-15T05:23:25;7.80;;;4.40;;
24279;SDS011;12395;42.808;23.408;2022-10-15T05:25:50;8.82;;;4.60;;
24279;SDS011;12395;42.808;23.408;2022-10-15T05:28:16;7.75;;;4.43;;
24279;SDS011;12395;42.808;23.408;2022-10-15T05:30:41;8.63;;;4.50;;
24279;SDS011;12395;42.808;23.408;2022-10-15T05:33:07;10.10;;;4.25;;
24279;SDS011;12395;42.808;23.408;2022-10-15T05:35:32;7.47;;;4.05;;
24279;SDS011;12395;42.808;23.408;2022-10-15T05:37:57;7.35;;;3.90;;
24279;SDS011;12395;42.808;23.408;2022-10-15T05:40:23;6.95;;;4.20;;
24279;SDS011;12395;42.808;23.408;2022-10-15T05:42:51;7.35;;;3.95;;
24279;SDS011;12395;42.808;23.408;2022-10-15T05:45:17;6.82;;;3.85;;
24279;SDS011;12395;42.808;23.408;2022-10-15T05:47:43;10.40;;;4.95;;
24279;SDS011;12395;42.808;23.408;2022-10-15T05:50:08;6.95;;;3.70;;
24279;SDS011;12395;42.808;23.408;2022-10-15T05:52:34;6.93;;;3.70;;
24279;SDS011;12395;42.808;23.408;2022-10-15T05:54:59;8.43;;;4.20;;
24279;SDS011;12395;42.808;23.408;2022-10-15T05:57:24;6.65;;;3.97;;
24279;SDS011;12395;42.808;23.408;2022-10-15T05:59:50;8.05;;;3.60;;
24279;SDS011;12395;42.808;23.408;2022-10-15T06:02:15;7.30;;;3.63;;
24279;SDS011;12395;42.808;23.408;2022-10-15T06:04:41;7.70;;;3.65;;
24279;SDS011;12395;42.808;23.408;2022-10-15T06:07:07;8.63;;;3.97;;
24279;SDS011;12395;42.808;23.408;2022-10-15T06:09:32;7.15;;;3.67;;
24279;SDS011;12395;42.808;23.408;2022-10-15T06:11:58;7.68;;;3.88;;
24279;SDS011;12395;42.808;23.408;2022-10-15T06:14:23;6.82;;;3.58;;
24279;SDS011;12395;42.808;23.408;2022-10-15T06:16:49;7.38;;;3.78;;
24279;SDS011;12395;42.808;23.408;2022-10-15T06:19:14;7.30;;;3.72;;
24279;SDS011;12395;42.808;23.408;2022-10-15T06:21:40;7.55;;;3.45;;
24279;SDS011;12395;42.808;23.408;2022-10-15T06:24:06;8.02;;;3.70;;
24279;SDS011;12395;42.808;23.408;2022-10-15T06:26:31;7.88;;;3.78;;
24279;SDS011;12395;42.808;23.408;2022-10-15T06:28:56;6.00;;;3.50;;
24279;SDS011;12395;42.808;23.408;2022-10-15T06:31:23;8.85;;;3.70;;
24279;SDS011;12395;42.808;23.408;2022-10-15T06:33:49;6.82;;;3.60;;
24279;SDS011;12395;42.808;23.408;2022-10-15T06:36:14;6.60;;;3.60;;
24279;SDS011;12395;42.808;23.408;2022-10-15T06:38:40;7.28;;;3.55;;
24279;SDS011;12395;42.808;23.408;2022-10-15T06:41:08;7.30;;;3.47;;
24279;SDS011;12395;42.808;23.408;2022-10-15T06:43:34;6.85;;;3.45;;
24279;SDS011;12395;42.808;23.408;2022-10-15T06:46:00;8.27;;;3.72;;
24279;SDS011;12395;42.808;23.408;2022-10-15T06:48:28;6.40;;;3.40;;
24279;SDS011;12395;42.808;23.408;2022-10-15T06:50:53;6.40;;;3.53;;
24279;SDS011;12395;42.808;23.408;2022-10-15T06:53:18;6.32;;;3.60;;
24279;SDS011;12395;42.808;23.408;2022-10-15T06:55:44;6.40;;;3.28;;
24279;SDS011;12395;42.808;23.408;2022-10-15T06:58:09;6.13;;;3.22;;
24279;SDS011;12395;42.808;23.408;2022-10-15T07:00:35;4.90;;;3.00;;
24279;SDS011;12395;42.808;23.408;2022-10-15T07:03:03;6.45;;;3.08;;
24279;SDS011;12395;42.808;23.408;2022-10-15T07:05:30;6.18;;;3.03;;
24279;SDS011;12395;42.808;23.408;2022-10-15T07:07:56;7.13;;;3.22;;
24279;SDS011;12395;42.808;23.408;2022-10-15T07:10:22;5.47;;;2.92;;
24279;SDS011;12395;42.808;23.408;2022-10-15T07:12:49;7.43;;;3.05;;
24279;SDS011;12395;42.808;23.408;2022-10-15T07:15:14;6.85;;;3.00;;
24279;SDS011;12395;42.808;23.408;2022-10-15T07:17:45;5.13;;;2.90;;
24279;SDS011;12395;42.808;23.408;2022-10-15T07:20:11;4.95;;;2.92;;
24279;SDS011;12395;42.808;23.408;2022-10-15T07:22:37;4.95;;;2.95;;
24279;SDS011;12395;42.808;23.408;2022-10-15T07:25:02;5.85;;;3.13;;
24279;SDS011;12395;42.808;23.408;2022-10-15T07:27:28;5.60;;;3.10;;
24279;SDS011;12395;42.808;23.408;2022-10-15T07:29:53;6.60;;;2.90;;
24279;SDS011;12395;42.808;23.408;2022-10-15T07:32:18;6.03;;;3.30;;
24279;SDS011;12395;42.808;23.408;2022-10-15T07:34:44;4.40;;;2.90;;
24279;SDS011;12395;42.808;23.408;2022-10-15T07:37:09;6.35;;;3.05;;
24279;SDS011;12395;42.808;23.408;2022-10-15T07:39:34;5.00;;;2.80;;
24279;SDS011;12395;42.808;23.408;2022-10-15T07:42:00;6.18;;;2.90;;
24279;SDS011;12395;42.808;23.408;2022-10-15T07:44:25;5.70;;;2.97;;
24279;SDS011;12395;42.808;23.408;2022-10-15T07:46:51;5.47;;;2.90;;
24279;SDS011;12395;42.808;23.408;2022-10-15T07:49:16;5.07;;;2.60;;
24279;SDS011;12395;42.808;23.408;2022-10-15T07:51:41;4.30;;;2.78;;
24279;SDS011;12395;42.808;23.408;2022-10-15T07:54:07;4.63;;;2.42;;
24279;SDS011;12395;42.808;23.408;2022-10-15T07:56:32;4.65;;;2.30;;
24279;SDS011;12395;42.808;23.408;2022-10-15T07:58:58;4.30;;;2.70;;
24279;SDS011;12395;42.808;23.408;2022-10-15T08:01:23;4.55;;;2.65;;
24279;SDS011;12395;42.808;23.408;2022-10-15T08:03:48;5.35;;;2.55;;
24279;SDS011;12395;42.808;23.408;2022-10-15T08:06:14;4.22;;;2.67;;
24279;SDS011;12395;42.808;23.408;2022-10-15T08:08:40;4.55;;;2.53;;
24279;SDS011;12395;42.808;23.408;2022-10-15T08:11:06;5.05;;;2.60;;
24279;SDS011;12395;42.808;23.408;2022-10-15T08:13:32;5.47;;;2.50;;
24279;SDS011;12395;42.808;23.408;2022-10-15T08:15:58;3.88;;;2.40;;
24279;SDS011;12395;42.808;23.408;2022-10-15T08:18:23;4.45;;;2.42;;
24279;SDS011;12395;42.808;23.408;2022-10-15T08:20:49;4.25;;;2.33;;
24279;SDS011;12395;42.808;23.408;2022-10-15T08:23:15;4.13;;;2.38;;
24279;SDS011;12395;42.808;23.408;2022-10-15T08:25:41;5.53;;;2.30;;
24279;SDS011;12395;42.808;23.408;2022-10-15T08:28:06;4.25;;;2.40;;
24279;SDS011;12395;42.808;23.408;2022-10-15T08:30:34;3.88;;;2.20;;
24279;SDS011;12395;42.808;23.408;2022-10-15T08:32:59;3.75;;;2.17;;
24279;SDS011;12395;42.808;23.408;2022-10-15T08:35:24;5.40;;;2.50;;
24279;SDS011;12395;42.808;23.408;2022-10-15T08:37:52;4.25;;;2.45;;
24279;SDS011;12395;42.808;23.408;2022-10-15T08:40:18;6.10;;;2.42;;
24279;SDS011;12395;42.808;23.408;2022-10-15T08:42:46;4.32;;;2.53;;
24279;SDS011;12395;42.808;23.408;2022-10-15T08:45:14;3.80;;;2.33;;
24279;SDS011;12395;42.808;23.408;2022-10-15T08:53:19;3.90;;;2.45;;
24279;SDS011;12395;42.808;23.408;2022-10-15T08:55:48;3.95;;;2.28;;
24279;SDS011;12395;42.808;23.408;2022-10-15T08:58:18;4.60;;;2.58;;
24279;SDS011;12395;42.808;23.408;2022-10-15T09:00:50;4.32;;;2.28;;
24279;SDS011;12395;42.808;23.408;2022-10-15T09:06:25;4.22;;;2.13;;
24279;SDS011;12395;42.808;23.408;2022-10-15T09:11:56;3.90;;;2.15;;
24279;SDS011;12395;42.808;23.408;2022-10-15T09:14:32;3.42;;;2.10;;
24279;SDS011;12395;42.808;23.408;2022-10-15T09:17:06;3.50;;;2.10;;
24279;SDS011;12395;42.808;23.408;2022-10-15T09:19:55;4.57;;;2.33;;
24279;SDS011;12395;42.808;23.408;2022-10-15T09:22:23;4.40;;;2.22;;
24279;SDS011;12395;42.808;23.408;2022-10-15T09:24:51;4.03;;;2.30;;
24279;SDS011;12395;42.808;23.408;2022-10-15T09:27:30;4.60;;;2.25;;
24279;SDS011;12395;42.808;23.408;2022-10-15T09:35:54;3.35;;;1.95;;
24279;SDS011;12395;42.808;23.408;2022-10-15T09:43:47;2.53;;;1.83;;
24279;SDS011;12395;42.808;23.408;2022-10-15T09:46:15;3.90;;;1.80;;
24279;SDS011;12395;42.808;23.408;2022-10-15T09:49:02;4.25;;;2.03;;
24279;SDS011;12395;42.808;23.408;2022-10-15T09:51:42;2.88;;;1.80;;
24279;SDS011;12395;42.808;23.408;2022-10-15T09:57:13;2.40;;;1.85;;
24279;SDS011;12395;42.808;23.408;2022-10-15T09:59:51;4.82;;;2.00;;
24279;SDS011;12395;42.808;23.408;2022-10-15T10:02:19;3.30;;;1.77;;
24279;SDS011;12395;42.808;23.408;2022-10-15T10:04:45;4.25;;;2.10;;
24279;SDS011;12395;42.808;23.408;2022-10-15T10:07:30;3.22;;;2.10;;
24279;SDS011;12395;42.808;23.408;2022-10-15T10:12:47;2.47;;;1.80;;
24279;SDS011;12395;42.808;23.408;2022-10-15T10:15:28;2.75;;;1.60;;
24279;SDS011;12395;42.808;23.408;2022-10-15T10:17:58;4.25;;;1.92;;
24279;SDS011;12395;42.808;23.408;2022-10-15T10:20:28;3.08;;;1.70;;
24279;SDS011;12395;42.808;23.408;2022-10-15T10:23:01;9.38;;;1.95;;
24279;SDS011;12395;42.808;23.408;2022-10-15T10:25:44;2.35;;;1.58;;
24279;SDS011;12395;42.808;23.408;2022-10-15T10:30:36;3.08;;;1.60;;
24279;SDS011;12395;42.808;23.408;2022-10-15T10:33:09;3.17;;;1.55;;
24279;SDS011;12395;42.808;23.408;2022-10-15T10:35:44;2.30;;;1.48;;
24279;SDS011;12395;42.808;23.408;2022-10-15T10:38:22;2.20;;;1.42;;
24279;SDS011;12395;42.808;23.408;2022-10-15T10:40:51;3.17;;;1.90;;
24279;SDS011;12395;42.808;23.408;2022-10-15T10:43:23;2.25;;;1.45;;
24279;SDS011;12395;42.808;23.408;2022-10-15T10:48:20;1.77;;;1.50;;
24279;SDS011;12395;42.808;23.408;2022-10-15T10:54:03;3.53;;;1.40;;
24279;SDS011;12395;42.808;23.408;2022-10-15T11:01:39;1.70;;;1.30;;
24279;SDS011;12395;42.808;23.408;2022-10-15T11:04:08;2.40;;;1.50;;
24279;SDS011;12395;42.808;23.408;2022-10-15T11:14:32;1.55;;;1.40;;
24279;SDS011;12395;42.808;23.408;2022-10-15T11:19:52;1.88;;;1.30;;
24279;SDS011;12395;42.808;23.408;2022-10-15T11:30:37;2.35;;;1.70;;
24279;SDS011;12395;42.808;23.408;2022-10-15T11:35:56;2.45;;;1.60;;
24279;SDS011;12395;42.808;23.408;2022-10-15T11:38:39;2.95;;;1.65;;
24279;SDS011;12395;42.808;23.408;2022-10-15T11:54:41;3.28;;;1.70;;
24279;SDS011;12395;42.808;23.408;2022-10-15T11:57:12;3.33;;;1.88;;
24279;SDS011;12395;42.808;23.408;2022-10-15T11:59:50;3.92;;;1.80;;
24279;SDS011;12395;42.808;23.408;2022-10-15T12:04:58;2.72;;;1.70;;
24279;SDS011;12395;42.808;23.408;2022-10-15T12:07:33;2.50;;;1.80;;
24279;SDS011;12395;42.808;23.408;2022-10-15T12:15:48;3.33;;;1.83;;
24279;SDS011;12395;42.808;23.408;2022-10-15T12:23:57;2.70;;;1.80;;
24279;SDS011;12395;42.808;23.408;2022-10-15T12:28:52;3.83;;;2.03;;
24279;SDS011;12395;42.808;23.408;2022-10-15T12:31:19;3.90;;;1.90;;
24279;SDS011;12395;42.808;23.408;2022-10-15T12:33:49;3.88;;;2.20;;
24279;SDS011;12395;42.808;23.408;2022-10-15T12:36:20;5.85;;;1.90;;
24279;SDS011;12395;42.808;23.408;2022-10-15T12:38:59;2.92;;;1.92;;
24279;SDS011;12395;42.808;23.408;2022-10-15T12:41:33;3.47;;;2.00;;
24279;SDS011;12395;42.808;23.408;2022-10-15T12:44:03;2.90;;;1.90;;
24279;SDS011;12395;42.808;23.408;2022-10-15T12:46:39;2.85;;;1.95;;
24279;SDS011;12395;42.808;23.408;2022-10-15T12:49:43;4.57;;;2.03;;
24279;SDS011;12395;42.808;23.408;2022-10-15T12:55:17;3.42;;;1.95;;
24279;SDS011;12395;42.808;23.408;2022-10-15T12:57:52;4.82;;;1.92;;
24279;SDS011;12395;42.808;23.408;2022-10-15T13:02:50;2.17;;;1.83;;
24279;SDS011;12395;42.808;23.408;2022-10-15T13:07:57;3.00;;;1.95;;
24279;SDS011;12395;42.808;23.408;2022-10-15T13:10:28;3.35;;;1.83;;
24279;SDS011;12395;42.808;23.408;2022-10-15T13:12:58;4.35;;;2.13;;
24279;SDS011;12395;42.808;23.408;2022-10-15T13:15:28;3.75;;;1.90;;
24279;SDS011;12395;42.808;23.408;2022-10-15T13:17:55;4.05;;;1.90;;
24279;SDS011;12395;42.808;23.408;2022-10-15T13:20:28;2.75;;;1.95;;
24279;SDS011;12395;42.808;23.408;2022-10-15T13:26:14;3.05;;;1.90;;
24279;SDS011;12395;42.808;23.408;2022-10-15T13:28:51;3.03;;;1.80;;
24279;SDS011;12395;42.808;23.408;2022-10-15T13:33:50;3.88;;;1.90;;
24279;SDS011;12395;42.808;23.408;2022-10-15T13:36:22;3.65;;;1.88;;
24279;SDS011;12395;42.808;23.408;2022-10-15T13:39:04;2.88;;;1.52;;
24279;SDS011;12395;42.808;23.408;2022-10-15T13:41:33;4.18;;;1.80;;
24279;SDS011;12395;42.808;23.408;2022-10-15T13:44:01;3.95;;;1.70;;
24279;SDS011;12395;42.808;23.408;2022-10-15T13:46:29;5.38;;;1.50;;
24279;SDS011;12395;42.808;23.408;2022-10-15T13:48:57;2.75;;;1.58;;
24279;SDS011;12395;42.808;23.408;2022-10-15T13:51:31;3.55;;;1.60;;
24279;SDS011;12395;42.808;23.408;2022-10-15T13:53:58;2.85;;;1.50;;
24279;SDS011;12395;42.808;23.408;2022-10-15T13:56:27;3.05;;;1.70;;
24279;SDS011;12395;42.808;23.408;2022-10-15T13:58:55;2.50;;;1.60;;
24279;SDS011;12395;42.808;23.408;2022-10-15T14:03:52;3.60;;;1.60;;
24279;SDS011;12395;42.808;23.408;2022-10-15T14:06:26;2.85;;;1.48;;
24279;SDS011;12395;42.808;23.408;2022-10-15T14:09:00;2.63;;;1.60;;
24279;SDS011;12395;42.808;23.408;2022-10-15T14:11:35;2.15;;;1.55;;
24279;SDS011;12395;42.808;23.408;2022-10-15T14:14:03;4.25;;;1.70;;
24279;SDS011;12395;42.808;23.408;2022-10-15T14:16:48;5.68;;;1.50;;
24279;SDS011;12395;42.808;23.408;2022-10-15T14:19:18;3.85;;;1.63;;
24279;SDS011;12395;42.808;23.408;2022-10-15T14:21:46;3.80;;;1.88;;
24279;SDS011;12395;42.808;23.408;2022-10-15T14:24:20;2.42;;;1.50;;
24279;SDS011;12395;42.808;23.408;2022-10-15T14:26:47;2.88;;;1.55;;
24279;SDS011;12395;42.808;23.408;2022-10-15T14:29:18;3.03;;;1.80;;
24279;SDS011;12395;42.808;23.408;2022-10-15T14:31:50;3.33;;;1.92;;
24279;SDS011;12395;42.808;23.408;2022-10-15T14:37:00;4.63;;;2.00;;
24279;SDS011;12395;42.808;23.408;2022-10-15T14:41:55;2.17;;;1.70;;
24279;SDS011;12395;42.808;23.408;2022-10-15T14:47:21;4.25;;;1.95;;
24279;SDS011;12395;42.808;23.408;2022-10-15T14:49:50;4.57;;;2.03;;
24279;SDS011;12395;42.808;23.408;2022-10-15T14:52:19;3.20;;;1.92;;
24279;SDS011;12395;42.808;23.408;2022-10-15T14:54:50;2.85;;;1.75;;
24279;SDS011;12395;42.808;23.408;2022-10-15T14:57:27;3.17;;;2.20;;
24279;SDS011;12395;42.808;23.408;2022-10-15T14:59:56;3.33;;;1.77;;
24279;SDS011;12395;42.808;23.408;2022-10-15T15:02:23;4.07;;;2.00;;
24279;SDS011;12395;42.808;23.408;2022-10-15T15:04:51;2.55;;;1.67;;
24279;SDS011;12395;42.808;23.408;2022-10-15T15:07:30;2.60;;;1.80;;
24279;SDS011;12395;42.808;23.408;2022-10-15T15:09:56;2.67;;;1.85;;
24279;SDS011;12395;42.808;23.408;2022-10-15T15:12:22;2.97;;;1.75;;
24279;SDS011;12395;42.808;23.408;2022-10-15T15:14:50;3.67;;;1.80;;
24279;SDS011;12395;42.808;23.408;2022-10-15T15:17:17;5.78;;;2.03;;
24279;SDS011;12395;42.808;23.408;2022-10-15T15:19:45;4.28;;;2.08;;
24279;SDS011;12395;42.808;23.408;2022-10-15T15:22:12;2.90;;;1.60;;
24279;SDS011;12395;42.808;23.408;2022-10-15T15:24:40;4.28;;;2.10;;
24279;SDS011;12395;42.808;23.408;2022-10-15T15:27:06;4.90;;;2.30;;
24279;SDS011;12395;42.808;23.408;2022-10-15T15:29:35;3.67;;;1.80;;
24279;SDS011;12395;42.808;23.408;2022-10-15T15:32:00;4.15;;;1.88;;
24279;SDS011;12395;42.808;23.408;2022-10-15T15:34:25;2.33;;;1.90;;
24279;SDS011;12395;42.808;23.408;2022-10-15T15:36:51;4.13;;;2.10;;
24279;SDS011;12395;42.808;23.408;2022-10-15T15:39:16;2.97;;;2.10;;
24279;SDS011;12395;42.808;23.408;2022-10-15T15:41:42;4.38;;;2.20;;
24279;SDS011;12395;42.808;23.408;2022-10-15T15:44:10;4.72;;;1.80;;
24279;SDS011;12395;42.808;23.408;2022-10-15T15:46:36;4.78;;;2.25;;
24279;SDS011;12395;42.808;23.408;2022-10-15T15:49:01;5.25;;;2.20;;
24279;SDS011;12395;42.808;23.408;2022-10-15T15:51:27;5.43;;;2.25;;
24279;SDS011;12395;42.808;23.408;2022-10-15T15:53:56;2.85;;;2.20;;
24279;SDS011;12395;42.808;23.408;2022-10-15T15:56:22;4.40;;;2.38;;
24279;SDS011;12395;42.808;23.408;2022-10-15T15:58:48;3.13;;;2.10;;
24279;SDS011;12395;42.808;23.408;2022-10-15T16:01:18;3.33;;;2.20;;
24279;SDS011;12395;42.808;23.408;2022-10-15T16:03:43;5.00;;;2.08;;
24279;SDS011;12395;42.808;23.408;2022-10-15T16:06:15;5.38;;;2.30;;
24279;SDS011;12395;42.808;23.408;2022-10-15T16:08:43;4.53;;;2.30;;
24279;SDS011;12395;42.808;23.408;2022-10-15T16:11:30;4.88;;;2.50;;
24279;SDS011;12395;42.808;23.408;2022-10-15T16:13:58;4.97;;;2.40;;
24279;SDS011;12395;42.808;23.408;2022-10-15T16:16:24;3.70;;;2.20;;
24279;SDS011;12395;42.808;23.408;2022-10-15T16:18:50;4.97;;;2.70;;
24279;SDS011;12395;42.808;23.408;2022-10-15T16:21:22;3.95;;;2.40;;
24279;SDS011;12395;42.808;23.408;2022-10-15T16:23:48;3.60;;;2.30;;
24279;SDS011;12395;42.808;23.408;2022-10-15T16:26:13;5.10;;;2.28;;
24279;SDS011;12395;42.808;23.408;2022-10-15T16:28:45;3.83;;;2.30;;
24279;SDS011;12395;42.808;23.408;2022-10-15T16:33:46;3.88;;;2.53;;
24279;SDS011;12395;42.808;23.408;2022-10-15T16:36:13;4.90;;;2.67;;
24279;SDS011;12395;42.808;23.408;2022-10-15T16:38:40;5.55;;;2.80;;
24279;SDS011;12395;42.808;23.408;2022-10-15T16:41:07;6.43;;;2.85;;
24279;SDS011;12395;42.808;23.408;2022-10-15T16:43:33;4.60;;;2.58;;
24279;SDS011;12395;42.808;23.408;2022-10-15T16:45:59;4.75;;;2.60;;
24279;SDS011;12395;42.808;23.408;2022-10-15T16:48:25;6.53;;;2.60;;
24279;SDS011;12395;42.808;23.408;2022-10-15T16:50:57;6.72;;;3.10;;
24279;SDS011;12395;42.808;23.408;2022-10-15T16:53:24;4.45;;;2.70;;
24279;SDS011;12395;42.808;23.408;2022-10-15T16:55:50;7.38;;;2.72;;
24279;SDS011;12395;42.808;23.408;2022-10-15T16:58:15;4.28;;;2.70;;
24279;SDS011;12395;42.808;23.408;2022-10-15T17:00:41;5.63;;;3.22;;
24279;SDS011;12395;42.808;23.408;2022-10-15T17:03:06;5.35;;;2.78;;
24279;SDS011;12395;42.808;23.408;2022-10-15T17:05:31;5.78;;;3.17;;